sensor_id;sensor_type;location;lat;lon;timestamp;P1;durP1;ratioP1;P2;durP2;ratioP2
11839;SDS011;5979;50.800;4.904;2023-02-03T00:00:26;3.58;;;2.45;;
11839;SDS011;5979;50.800;4.904;2023-02-03T00:02:53;7.07;;;2.70;;
11839;SDS011;5979;50.800;4.904;2023-02-03T00:05:19;3.45;;;2.63;;
11839;SDS011;5979;50.800;4.904;2023-02-03T00:07:45;4.82;;;2.58;;
11839;SDS011;5979;50.800;4.904;2023-02-03T00:10:11;5.03;;;2.45;;
11839;SDS011;5979;50.800;4.904;2023-02-03T00:12:37;4.57;;;2.55;;
11839;SDS011;5979;50.800;4.904;2023-02-03T00:15:03;3.80;;;2.70;;
11839;SDS011;5979;50.800;4.904;2023-02-03T00:17:29;7.32;;;2.88;;
11839;SDS011;5979;50.800;4.904;2023-02-03T00:19:55;3.17;;;2.88;;
11839;SDS011;5979;50.800;4.904;2023-02-03T00:22:20;6.40;;;3.08;;
11839;SDS011;5979;50.800;4.904;2023-02-03T00:24:46;4.20;;;2.20;;
11839;SDS011;5979;50.800;4.904;2023-02-03T00:27:11;3.22;;;2.40;;
11839;SDS011;5979;50.800;4.904;2023-02-03T00:29:38;4.82;;;2.83;;
11839;SDS011;5979;50.800;4.904;2023-02-03T00:32:04;3.67;;;2.65;;
11839;SDS011;5979;50.800;4.904;2023-02-03T00:34:30;5.07;;;3.05;;
11839;SDS011;5979;50.800;4.904;2023-02-03T00:36:55;5.18;;;2.78;;
11839;SDS011;5979;50.800;4.904;2023-02-03T00:39:21;7.28;;;3.03;;
11839;SDS011;5979;50.800;4.904;2023-02-03T00:41:47;6.25;;;3.00;;
11839;SDS011;5979;50.800;4.904;2023-02-03T00:44:13;8.93;;;3.00;;
11839;SDS011;5979;50.800;4.904;2023-02-03T00:46:39;5.80;;;3.05;;
11839;SDS011;5979;50.800;4.904;2023-02-03T00:49:05;4.70;;;3.08;;
11839;SDS011;5979;50.800;4.904;2023-02-03T00:51:31;4.40;;;2.90;;
11839;SDS011;5979;50.800;4.904;2023-02-03T00:53:58;8.32;;;2.80;;
11839;SDS011;5979;50.800;4.904;2023-02-03T00:56:23;7.78;;;3.25;;
11839;SDS011;5979;50.800;4.904;2023-02-03T00:58:49;5.03;;;2.92;;
11839;SDS011;5979;50.800;4.904;2023-02-03T01:01:15;4.57;;;2.80;;
11839;SDS011;5979;50.800;4.904;2023-02-03T01:03:40;10.73;;;3.55;;
11839;SDS011;5979;50.800;4.904;2023-02-03T01:06:07;5.90;;;2.90;;
11839;SDS011;5979;50.800;4.904;2023-02-03T01:08:34;3.92;;;2.90;;
11839;SDS011;5979;50.800;4.904;2023-02-03T01:11:04;4.68;;;2.65;;
11839;SDS011;5979;50.800;4.904;2023-02-03T01:13:31;7.47;;;2.90;;
11839;SDS011;5979;50.800;4.904;2023-02-03T01:15:56;6.78;;;2.92;;
11839;SDS011;5979;50.800;4.904;2023-02-03T01:18:22;5.82;;;2.33;;
11839;SDS011;5979;50.800;4.904;2023-02-03T01:20:48;5.97;;;2.70;;
11839;SDS011;5979;50.800;4.904;2023-02-03T01:23:13;6.03;;;2.88;;
11839;SDS011;5979;50.800;4.904;2023-02-03T01:25:39;4.63;;;2.83;;
11839;SDS011;5979;50.800;4.904;2023-02-03T01:28:05;5.55;;;3.28;;
11839;SDS011;5979;50.800;4.904;2023-02-03T01:30:30;4.47;;;2.50;;
11839;SDS011;5979;50.800;4.904;2023-02-03T01:32:56;5.05;;;2.65;;
11839;SDS011;5979;50.800;4.904;2023-02-03T01:35:21;7.45;;;3.10;;
11839;SDS011;5979;50.800;4.904;2023-02-03T01:37:47;4.72;;;2.95;;
11839;SDS011;5979;50.800;4.904;2023-02-03T01:40:13;4.43;;;2.67;;
11839;SDS011;5979;50.800;4.904;2023-02-03T01:42:38;5.13;;;2.78;;
11839;SDS011;5979;50.800;4.904;2023-02-03T01:45:04;6.18;;;2.70;;
11839;SDS011;5979;50.800;4.904;2023-02-03T01:47:35;5.97;;;3.00;;
11839;SDS011;5979;50.800;4.904;2023-02-03T01:50:12;7.25;;;2.90;;
11839;SDS011;5979;50.800;4.904;2023-02-03T01:52:44;6.30;;;2.72;;
11839;SDS011;5979;50.800;4.904;2023-02-03T01:55:16;6.85;;;2.80;;
11839;SDS011;5979;50.800;4.904;2023-02-03T01:57:51;5.57;;;2.47;;
11839;SDS011;5979;50.800;4.904;2023-02-03T02:00:22;4.10;;;2.55;;
11839;SDS011;5979;50.800;4.904;2023-02-03T02:02:48;5.20;;;3.00;;
11839;SDS011;5979;50.800;4.904;2023-02-03T02:05:19;5.10;;;2.35;;
11839;SDS011;5979;50.800;4.904;2023-02-03T02:07:53;7.13;;;2.90;;
11839;SDS011;5979;50.800;4.904;2023-02-03T02:10:21;8.90;;;2.80;;
11839;SDS011;5979;50.800;4.904;2023-02-03T02:12:47;7.43;;;2.65;;
11839;SDS011;5979;50.800;4.904;2023-02-03T02:15:13;7.03;;;2.50;;
11839;SDS011;5979;50.800;4.904;2023-02-03T02:18:01;3.15;;;2.65;;
11839;SDS011;5979;50.800;4.904;2023-02-03T02:37:36;6.43;;;2.60;;
11839;SDS011;5979;50.800;4.904;2023-02-03T02:46:02;7.75;;;2.50;;
11839;SDS011;5979;50.800;4.904;2023-02-03T02:48:35;4.70;;;2.33;;
11839;SDS011;5979;50.800;4.904;2023-02-03T02:51:04;7.80;;;2.17;;
11839;SDS011;5979;50.800;4.904;2023-02-03T02:53:33;5.85;;;2.53;;
11839;SDS011;5979;50.800;4.904;2023-02-03T02:56:02;8.18;;;2.42;;
11839;SDS011;5979;50.800;4.904;2023-02-03T02:58:32;8.85;;;2.17;;
11839;SDS011;5979;50.800;4.904;2023-02-03T03:01:00;7.35;;;2.38;;
11839;SDS011;5979;50.800;4.904;2023-02-03T03:03:27;8.68;;;2.47;;
11839;SDS011;5979;50.800;4.904;2023-02-03T03:05:54;8.50;;;2.25;;
11839;SDS011;5979;50.800;4.904;2023-02-03T03:08:30;9.75;;;2.47;;
11839;SDS011;5979;50.800;4.904;2023-02-03T03:11:05;5.75;;;3.00;;
11839;SDS011;5979;50.800;4.904;2023-02-03T03:13:32;7.20;;;2.30;;
11839;SDS011;5979;50.800;4.904;2023-02-03T03:16:02;6.78;;;2.05;;
11839;SDS011;5979;50.800;4.904;2023-02-03T03:21:33;3.58;;;1.85;;
11839;SDS011;5979;50.800;4.904;2023-02-03T03:24:04;5.88;;;2.00;;
11839;SDS011;5979;50.800;4.904;2023-02-03T03:31:43;5.82;;;2.30;;
11839;SDS011;5979;50.800;4.904;2023-02-03T03:34:10;4.65;;;1.88;;
11839;SDS011;5979;50.800;4.904;2023-02-03T03:39:29;5.13;;;2.00;;
11839;SDS011;5979;50.800;4.904;2023-02-03T03:47:46;5.60;;;2.08;;
11839;SDS011;5979;50.800;4.904;2023-02-03T03:50:21;4.70;;;2.58;;
11839;SDS011;5979;50.800;4.904;2023-02-03T03:52:52;5.78;;;2.22;;
11839;SDS011;5979;50.800;4.904;2023-02-03T03:55:19;2.72;;;1.52;;
11839;SDS011;5979;50.800;4.904;2023-02-03T03:57:47;10.73;;;2.47;;
11839;SDS011;5979;50.800;4.904;2023-02-03T04:00:20;5.15;;;1.90;;
11839;SDS011;5979;50.800;4.904;2023-02-03T04:02:49;5.30;;;2.08;;
11839;SDS011;5979;50.800;4.904;2023-02-03T04:05:18;5.18;;;2.03;;
11839;SDS011;5979;50.800;4.904;2023-02-03T04:07:45;9.32;;;2.20;;
11839;SDS011;5979;50.800;4.904;2023-02-03T04:12:43;5.43;;;1.98;;
11839;SDS011;5979;50.800;4.904;2023-02-03T04:15:09;8.13;;;2.20;;
11839;SDS011;5979;50.800;4.904;2023-02-03T04:17:34;6.60;;;1.83;;
11839;SDS011;5979;50.800;4.904;2023-02-03T04:20:01;5.32;;;2.10;;
11839;SDS011;5979;50.800;4.904;2023-02-03T04:22:29;4.93;;;1.83;;
11839;SDS011;5979;50.800;4.904;2023-02-03T04:24:55;6.97;;;2.03;;
11839;SDS011;5979;50.800;4.904;2023-02-03T04:27:23;7.32;;;1.80;;
11839;SDS011;5979;50.800;4.904;2023-02-03T04:29:49;4.68;;;2.15;;
11839;SDS011;5979;50.800;4.904;2023-02-03T04:32:15;4.55;;;2.13;;
11839;SDS011;5979;50.800;4.904;2023-02-03T04:34:41;5.32;;;2.00;;
11839;SDS011;5979;50.800;4.904;2023-02-03T04:37:07;3.22;;;2.00;;
11839;SDS011;5979;50.800;4.904;2023-02-03T04:39:32;7.55;;;1.88;;
11839;SDS011;5979;50.800;4.904;2023-02-03T04:41:58;6.03;;;2.00;;
11839;SDS011;5979;50.800;4.904;2023-02-03T04:44:24;4.97;;;2.03;;
11839;SDS011;5979;50.800;4.904;2023-02-03T04:46:49;3.13;;;1.77;;
11839;SDS011;5979;50.800;4.904;2023-02-03T04:49:15;9.75;;;2.42;;
11839;SDS011;5979;50.800;4.904;2023-02-03T04:51:41;3.67;;;1.63;;
11839;SDS011;5979;50.800;4.904;2023-02-03T04:54:08;4.55;;;1.60;;
11839;SDS011;5979;50.800;4.904;2023-02-03T04:56:35;3.25;;;1.70;;
11839;SDS011;5979;50.800;4.904;2023-02-03T04:59:02;3.97;;;1.65;;
11839;SDS011;5979;50.800;4.904;2023-02-03T05:01:28;3.15;;;1.65;;
11839;SDS011;5979;50.800;4.904;2023-02-03T05:03:54;2.55;;;1.70;;
11839;SDS011;5979;50.800;4.904;2023-02-03T05:06:26;5.38;;;1.98;;
11839;SDS011;5979;50.800;4.904;2023-02-03T05:08:53;3.65;;;1.60;;
11839;SDS011;5979;50.800;4.904;2023-02-03T05:11:18;3.30;;;1.80;;
11839;SDS011;5979;50.800;4.904;2023-02-03T05:13:45;2.42;;;1.52;;
11839;SDS011;5979;50.800;4.904;2023-02-03T05:16:10;3.58;;;1.67;;
11839;SDS011;5979;50.800;4.904;2023-02-03T05:18:36;5.45;;;1.83;;
11839;SDS011;5979;50.800;4.904;2023-02-03T05:21:02;4.47;;;1.70;;
11839;SDS011;5979;50.800;4.904;2023-02-03T05:23:28;4.28;;;1.35;;
11839;SDS011;5979;50.800;4.904;2023-02-03T05:25:53;3.47;;;1.50;;
11839;SDS011;5979;50.800;4.904;2023-02-03T05:28:19;3.45;;;1.90;;
11839;SDS011;5979;50.800;4.904;2023-02-03T05:30:45;4.95;;;1.75;;
11839;SDS011;5979;50.800;4.904;2023-02-03T05:33:11;4.40;;;1.90;;
11839;SDS011;5979;50.800;4.904;2023-02-03T05:35:36;2.53;;;1.45;;
11839;SDS011;5979;50.800;4.904;2023-02-03T05:38:02;2.45;;;1.65;;
11839;SDS011;5979;50.800;4.904;2023-02-03T05:40:28;5.38;;;1.75;;
11839;SDS011;5979;50.800;4.904;2023-02-03T05:43:29;2.65;;;1.40;;
11839;SDS011;5979;50.800;4.904;2023-02-03T05:45:58;2.80;;;1.38;;
11839;SDS011;5979;50.800;4.904;2023-02-03T05:48:27;5.45;;;1.33;;
11839;SDS011;5979;50.800;4.904;2023-02-03T05:50:53;4.05;;;1.50;;
11839;SDS011;5979;50.800;4.904;2023-02-03T05:53:18;5.10;;;1.63;;
11839;SDS011;5979;50.800;4.904;2023-02-03T05:55:44;6.43;;;1.50;;
11839;SDS011;5979;50.800;4.904;2023-02-03T05:58:10;3.90;;;1.73;;
11839;SDS011;5979;50.800;4.904;2023-02-03T06:00:36;7.65;;;1.88;;
11839;SDS011;5979;50.800;4.904;2023-02-03T06:03:01;3.25;;;1.33;;
11839;SDS011;5979;50.800;4.904;2023-02-03T06:05:29;4.82;;;1.33;;
11839;SDS011;5979;50.800;4.904;2023-02-03T06:07:55;4.43;;;1.55;;
11839;SDS011;5979;50.800;4.904;2023-02-03T06:10:21;1.60;;;1.50;;
11839;SDS011;5979;50.800;4.904;2023-02-03T06:12:47;3.10;;;1.50;;
11839;SDS011;5979;50.800;4.904;2023-02-03T06:15:13;4.30;;;1.48;;
11839;SDS011;5979;50.800;4.904;2023-02-03T06:17:42;3.05;;;1.55;;
11839;SDS011;5979;50.800;4.904;2023-02-03T06:20:13;4.18;;;1.55;;
11839;SDS011;5979;50.800;4.904;2023-02-03T06:22:40;2.20;;;1.60;;
11839;SDS011;5979;50.800;4.904;2023-02-03T06:25:07;5.20;;;1.70;;
11839;SDS011;5979;50.800;4.904;2023-02-03T06:27:33;2.78;;;1.80;;
11839;SDS011;5979;50.800;4.904;2023-02-03T06:29:58;4.35;;;1.50;;
11839;SDS011;5979;50.800;4.904;2023-02-03T06:32:25;2.55;;;1.67;;
11839;SDS011;5979;50.800;4.904;2023-02-03T06:34:50;5.28;;;1.77;;
11839;SDS011;5979;50.800;4.904;2023-02-03T06:37:16;3.00;;;1.52;;
11839;SDS011;5979;50.800;4.904;2023-02-03T06:39:42;2.58;;;1.50;;
11839;SDS011;5979;50.800;4.904;2023-02-03T06:42:07;4.78;;;2.00;;
11839;SDS011;5979;50.800;4.904;2023-02-03T06:44:33;4.13;;;1.63;;
11839;SDS011;5979;50.800;4.904;2023-02-03T06:46:59;3.05;;;1.50;;
11839;SDS011;5979;50.800;4.904;2023-02-03T06:49:26;4.53;;;1.58;;
11839;SDS011;5979;50.800;4.904;2023-02-03T06:51:53;5.45;;;1.92;;
11839;SDS011;5979;50.800;4.904;2023-02-03T06:54:19;3.50;;;1.60;;
11839;SDS011;5979;50.800;4.904;2023-02-03T06:56:45;4.97;;;1.95;;
11839;SDS011;5979;50.800;4.904;2023-02-03T06:59:11;5.35;;;1.90;;
11839;SDS011;5979;50.800;4.904;2023-02-03T07:01:37;5.43;;;1.92;;
11839;SDS011;5979;50.800;4.904;2023-02-03T07:04:03;2.25;;;1.65;;
11839;SDS011;5979;50.800;4.904;2023-02-03T07:06:30;8.35;;;2.13;;
11839;SDS011;5979;50.800;4.904;2023-02-03T07:09:02;4.60;;;1.90;;
11839;SDS011;5979;50.800;4.904;2023-02-03T07:11:29;2.47;;;1.50;;
11839;SDS011;5979;50.800;4.904;2023-02-03T07:13:56;4.90;;;1.67;;
11839;SDS011;5979;50.800;4.904;2023-02-03T07:16:22;3.72;;;1.65;;
11839;SDS011;5979;50.800;4.904;2023-02-03T07:18:48;3.67;;;1.83;;
11839;SDS011;5979;50.800;4.904;2023-02-03T07:21:14;5.97;;;1.90;;
11839;SDS011;5979;50.800;4.904;2023-02-03T07:23:40;4.88;;;1.95;;
11839;SDS011;5979;50.800;4.904;2023-02-03T07:26:07;4.55;;;1.75;;
11839;SDS011;5979;50.800;4.904;2023-02-03T07:28:34;3.42;;;1.85;;
11839;SDS011;5979;50.800;4.904;2023-02-03T07:31:00;7.20;;;1.77;;
11839;SDS011;5979;50.800;4.904;2023-02-03T07:33:28;3.42;;;2.10;;
11839;SDS011;5979;50.800;4.904;2023-02-03T07:35:55;5.00;;;1.98;;
11839;SDS011;5979;50.800;4.904;2023-02-03T07:38:22;3.08;;;1.80;;
11839;SDS011;5979;50.800;4.904;2023-02-03T07:40:49;3.40;;;1.67;;
11839;SDS011;5979;50.800;4.904;2023-02-03T07:43:15;3.60;;;1.65;;
11839;SDS011;5979;50.800;4.904;2023-02-03T07:45:40;4.55;;;2.13;;
11839;SDS011;5979;50.800;4.904;2023-02-03T07:48:06;3.15;;;1.45;;
11839;SDS011;5979;50.800;4.904;2023-02-03T07:50:32;9.20;;;1.58;;
11839;SDS011;5979;50.800;4.904;2023-02-03T07:52:58;2.58;;;1.50;;
11839;SDS011;5979;50.800;4.904;2023-02-03T07:55:25;4.10;;;1.75;;
11839;SDS011;5979;50.800;4.904;2023-02-03T07:57:54;4.15;;;1.80;;
11839;SDS011;5979;50.800;4.904;2023-02-03T08:00:21;5.20;;;2.10;;
11839;SDS011;5979;50.800;4.904;2023-02-03T08:02:47;4.30;;;1.85;;
11839;SDS011;5979;50.800;4.904;2023-02-03T08:05:13;3.63;;;1.65;;
11839;SDS011;5979;50.800;4.904;2023-02-03T08:07:40;2.15;;;1.60;;
11839;SDS011;5979;50.800;4.904;2023-02-03T08:10:06;2.15;;;1.95;;
11839;SDS011;5979;50.800;4.904;2023-02-03T08:12:33;5.55;;;2.17;;
11839;SDS011;5979;50.800;4.904;2023-02-03T08:14:59;5.50;;;2.10;;
11839;SDS011;5979;50.800;4.904;2023-02-03T08:17:25;3.55;;;1.92;;
11839;SDS011;5979;50.800;4.904;2023-02-03T08:19:51;6.45;;;2.00;;
11839;SDS011;5979;50.800;4.904;2023-02-03T08:22:16;4.55;;;1.90;;
11839;SDS011;5979;50.800;4.904;2023-02-03T08:24:43;6.35;;;1.88;;
11839;SDS011;5979;50.800;4.904;2023-02-03T08:27:13;4.38;;;1.80;;
11839;SDS011;5979;50.800;4.904;2023-02-03T08:29:43;7.05;;;2.33;;
11839;SDS011;5979;50.800;4.904;2023-02-03T08:32:13;4.25;;;1.95;;
11839;SDS011;5979;50.800;4.904;2023-02-03T08:34:41;4.13;;;2.00;;
11839;SDS011;5979;50.800;4.904;2023-02-03T08:37:07;6.07;;;2.15;;
11839;SDS011;5979;50.800;4.904;2023-02-03T08:39:34;3.40;;;1.73;;
11839;SDS011;5979;50.800;4.904;2023-02-03T08:42:00;4.53;;;2.03;;
11839;SDS011;5979;50.800;4.904;2023-02-03T08:44:28;3.58;;;1.98;;
11839;SDS011;5979;50.800;4.904;2023-02-03T08:46:55;3.22;;;2.00;;
11839;SDS011;5979;50.800;4.904;2023-02-03T08:49:21;3.47;;;1.88;;
11839;SDS011;5979;50.800;4.904;2023-02-03T08:51:47;6.38;;;2.35;;
11839;SDS011;5979;50.800;4.904;2023-02-03T08:54:13;3.25;;;1.95;;
11839;SDS011;5979;50.800;4.904;2023-02-03T08:56:40;7.22;;;2.47;;
11839;SDS011;5979;50.800;4.904;2023-02-03T08:59:05;2.13;;;1.73;;
11839;SDS011;5979;50.800;4.904;2023-02-03T09:01:31;3.25;;;2.00;;
11839;SDS011;5979;50.800;4.904;2023-02-03T09:03:59;6.60;;;1.98;;
11839;SDS011;5979;50.800;4.904;2023-02-03T09:06:28;5.03;;;1.90;;
11839;SDS011;5979;50.800;4.904;2023-02-03T09:08:55;6.13;;;2.35;;
11839;SDS011;5979;50.800;4.904;2023-02-03T09:11:21;3.83;;;1.77;;
11839;SDS011;5979;50.800;4.904;2023-02-03T09:13:47;5.88;;;1.60;;
11839;SDS011;5979;50.800;4.904;2023-02-03T09:16:14;2.72;;;1.60;;
11839;SDS011;5979;50.800;4.904;2023-02-03T09:18:42;6.20;;;1.80;;
11839;SDS011;5979;50.800;4.904;2023-02-03T09:21:09;3.97;;;1.80;;
11839;SDS011;5979;50.800;4.904;2023-02-03T09:23:36;3.85;;;1.65;;
11839;SDS011;5979;50.800;4.904;2023-02-03T09:26:06;3.28;;;1.60;;
11839;SDS011;5979;50.800;4.904;2023-02-03T09:28:34;5.53;;;1.90;;
11839;SDS011;5979;50.800;4.904;2023-02-03T09:31:03;3.60;;;1.70;;
11839;SDS011;5979;50.800;4.904;2023-02-03T09:33:31;6.00;;;2.25;;
11839;SDS011;5979;50.800;4.904;2023-02-03T09:35:57;2.83;;;1.58;;
11839;SDS011;5979;50.800;4.904;2023-02-03T09:38:23;2.63;;;1.60;;
11839;SDS011;5979;50.800;4.904;2023-02-03T09:40:51;2.25;;;1.67;;
11839;SDS011;5979;50.800;4.904;2023-02-03T09:43:27;3.67;;;2.00;;
11839;SDS011;5979;50.800;4.904;2023-02-03T09:45:59;3.28;;;2.15;;
11839;SDS011;5979;50.800;4.904;2023-02-03T09:48:34;4.68;;;2.53;;
11839;SDS011;5979;50.800;4.904;2023-02-03T09:51:07;8.23;;;2.00;;
11839;SDS011;5979;50.800;4.904;2023-02-03T09:53:44;2.83;;;2.00;;
11839;SDS011;5979;50.800;4.904;2023-02-03T09:56:22;2.22;;;1.83;;
11839;SDS011;5979;50.800;4.904;2023-02-03T09:58:53;2.45;;;1.70;;
11839;SDS011;5979;50.800;4.904;2023-02-03T10:01:19;2.88;;;1.90;;
11839;SDS011;5979;50.800;4.904;2023-02-03T10:06:21;2.95;;;1.80;;
11839;SDS011;5979;50.800;4.904;2023-02-03T10:17:10;2.45;;;2.03;;
11839;SDS011;5979;50.800;4.904;2023-02-03T10:19:57;3.55;;;2.00;;
11839;SDS011;5979;50.800;4.904;2023-02-03T10:22:28;3.13;;;2.17;;
11839;SDS011;5979;50.800;4.904;2023-02-03T10:27:24;2.20;;;2.05;;
11839;SDS011;5979;50.800;4.904;2023-02-03T10:29:54;4.30;;;2.10;;
11839;SDS011;5979;50.800;4.904;2023-02-03T10:32:43;2.78;;;2.13;;
11839;SDS011;5979;50.800;4.904;2023-02-03T10:35:12;6.20;;;2.53;;
11839;SDS011;5979;50.800;4.904;2023-02-03T10:37:57;4.88;;;2.50;;
11839;SDS011;5979;50.800;4.904;2023-02-03T10:40:24;3.70;;;1.85;;
11839;SDS011;5979;50.800;4.904;2023-02-03T10:42:52;4.72;;;2.40;;
11839;SDS011;5979;50.800;4.904;2023-02-03T10:45:37;2.63;;;2.20;;
11839;SDS011;5979;50.800;4.904;2023-02-03T10:48:05;6.05;;;2.20;;
11839;SDS011;5979;50.800;4.904;2023-02-03T10:50:35;2.92;;;2.17;;
11839;SDS011;5979;50.800;4.904;2023-02-03T10:56:09;3.85;;;2.50;;
11839;SDS011;5979;50.800;4.904;2023-02-03T10:58:45;5.15;;;2.50;;
11839;SDS011;5979;50.800;4.904;2023-02-03T11:01:22;5.60;;;2.90;;
11839;SDS011;5979;50.800;4.904;2023-02-03T11:03:57;2.65;;;2.22;;
11839;SDS011;5979;50.800;4.904;2023-02-03T11:06:29;2.70;;;2.38;;
11839;SDS011;5979;50.800;4.904;2023-02-03T11:08:56;2.35;;;2.15;;
11839;SDS011;5979;50.800;4.904;2023-02-03T11:14:31;7.57;;;3.25;;
11839;SDS011;5979;50.800;4.904;2023-02-03T11:16:40;2.70;;;2.50;;
11839;SDS011;5979;50.800;4.904;2023-02-03T11:21:42;3.80;;;2.50;;
11839;SDS011;5979;50.800;4.904;2023-02-03T11:27:08;2.75;;;2.53;;
11839;SDS011;5979;50.800;4.904;2023-02-03T11:29:38;5.93;;;3.00;;
11839;SDS011;5979;50.800;4.904;2023-02-03T11:32:23;4.43;;;3.15;;
11839;SDS011;5979;50.800;4.904;2023-02-03T11:35:00;4.07;;;3.00;;
11839;SDS011;5979;50.800;4.904;2023-02-03T11:37:48;3.20;;;2.90;;
11839;SDS011;5979;50.800;4.904;2023-02-03T11:42:58;3.35;;;2.75;;
11839;SDS011;5979;50.800;4.904;2023-02-03T11:47:56;4.10;;;3.15;;
11839;SDS011;5979;50.800;4.904;2023-02-03T11:54:51;6.32;;;3.28;;
11839;SDS011;5979;50.800;4.904;2023-02-03T11:56:53;4.80;;;2.67;;
11839;SDS011;5979;50.800;4.904;2023-02-03T12:02:21;4.20;;;3.50;;
11839;SDS011;5979;50.800;4.904;2023-02-03T12:13:45;3.47;;;3.28;;
11839;SDS011;5979;50.800;4.904;2023-02-03T12:19:16;6.90;;;3.40;;
11839;SDS011;5979;50.800;4.904;2023-02-03T12:22:05;4.43;;;3.13;;
11839;SDS011;5979;50.800;4.904;2023-02-03T12:24:50;3.33;;;2.97;;
11839;SDS011;5979;50.800;4.904;2023-02-03T12:29:50;5.78;;;3.25;;
11839;SDS011;5979;50.800;4.904;2023-02-03T12:32:25;8.98;;;3.83;;
11839;SDS011;5979;50.800;4.904;2023-02-03T12:35:01;4.75;;;3.33;;
11839;SDS011;5979;50.800;4.904;2023-02-03T12:37:48;8.02;;;3.53;;
11839;SDS011;5979;50.800;4.904;2023-02-03T12:43:14;4.40;;;3.40;;
11839;SDS011;5979;50.800;4.904;2023-02-03T12:46:15;7.93;;;4.15;;
11839;SDS011;5979;50.800;4.904;2023-02-03T12:51:55;4.45;;;3.53;;
11839;SDS011;5979;50.800;4.904;2023-02-03T12:54:39;3.50;;;3.20;;
11839;SDS011;5979;50.800;4.904;2023-02-03T12:57:27;5.93;;;3.47;;
11839;SDS011;5979;50.800;4.904;2023-02-03T13:00:02;4.13;;;2.92;;
11839;SDS011;5979;50.800;4.904;2023-02-03T13:02:30;4.75;;;3.08;;
11839;SDS011;5979;50.800;4.904;2023-02-03T13:05:05;7.75;;;3.45;;
11839;SDS011;5979;50.800;4.904;2023-02-03T13:13:52;4.57;;;2.85;;
11839;SDS011;5979;50.800;4.904;2023-02-03T13:16:23;3.42;;;3.13;;
11839;SDS011;5979;50.800;4.904;2023-02-03T13:18:59;4.97;;;3.25;;
11839;SDS011;5979;50.800;4.904;2023-02-03T13:21:29;4.53;;;3.30;;
11839;SDS011;5979;50.800;4.904;2023-02-03T13:23:55;5.43;;;4.05;;
11839;SDS011;5979;50.800;4.904;2023-02-03T13:43:05;4.40;;;3.28;;
11839;SDS011;5979;50.800;4.904;2023-02-03T13:45:39;4.57;;;3.25;;
11839;SDS011;5979;50.800;4.904;2023-02-03T13:48:13;3.30;;;2.90;;
11839;SDS011;5979;50.800;4.904;2023-02-03T13:50:43;3.58;;;3.22;;
11839;SDS011;5979;50.800;4.904;2023-02-03T13:53:23;3.25;;;2.95;;
11839;SDS011;5979;50.800;4.904;2023-02-03T13:55:54;2.97;;;2.78;;
11839;SDS011;5979;50.800;4.904;2023-02-03T13:58:25;3.80;;;3.45;;
11839;SDS011;5979;50.800;4.904;2023-02-03T14:05:49;4.85;;;3.33;;
11839;SDS011;5979;50.800;4.904;2023-02-03T14:16:38;3.25;;;2.80;;
11839;SDS011;5979;50.800;4.904;2023-02-03T14:19:10;6.82;;;3.30;;
11839;SDS011;5979;50.800;4.904;2023-02-03T14:21:39;5.35;;;2.97;;
11839;SDS011;5979;50.800;4.904;2023-02-03T14:24:07;4.75;;;2.70;;
11839;SDS011;5979;50.800;4.904;2023-02-03T14:26:37;3.47;;;2.60;;
11839;SDS011;5979;50.800;4.904;2023-02-03T14:29:21;3.10;;;2.90;;
11839;SDS011;5979;50.800;4.904;2023-02-03T14:42:46;4.63;;;3.00;;
11839;SDS011;5979;50.800;4.904;2023-02-03T15:00:25;4.68;;;2.72;;
11839;SDS011;5979;50.800;4.904;2023-02-03T15:02:25;3.50;;;2.30;;
11839;SDS011;5979;50.800;4.904;2023-02-03T15:07:37;5.93;;;3.10;;
11839;SDS011;5979;50.800;4.904;2023-02-03T15:10:28;3.00;;;2.67;;
11839;SDS011;5979;50.800;4.904;2023-02-03T15:13:02;5.75;;;2.72;;
11839;SDS011;5979;50.800;4.904;2023-02-03T15:15:39;3.13;;;2.88;;
11839;SDS011;5979;50.800;4.904;2023-02-03T15:21:01;3.50;;;2.42;;
11839;SDS011;5979;50.800;4.904;2023-02-03T15:23:38;3.65;;;2.70;;
11839;SDS011;5979;50.800;4.904;2023-02-03T15:26:11;4.97;;;3.00;;
11839;SDS011;5979;50.800;4.904;2023-02-03T15:29:00;4.30;;;2.80;;
11839;SDS011;5979;50.800;4.904;2023-02-03T15:31:32;4.70;;;2.80;;
11839;SDS011;5979;50.800;4.904;2023-02-03T15:34:08;5.80;;;2.20;;
11839;SDS011;5979;50.800;4.904;2023-02-03T15:36:45;3.13;;;2.70;;
11839;SDS011;5979;50.800;4.904;2023-02-03T15:42:03;6.03;;;2.60;;
11839;SDS011;5979;50.800;4.904;2023-02-03T15:44:34;3.13;;;2.83;;
11839;SDS011;5979;50.800;4.904;2023-02-03T15:47:15;5.38;;;2.70;;
11839;SDS011;5979;50.800;4.904;2023-02-03T15:52:54;3.22;;;2.50;;
11839;SDS011;5979;50.800;4.904;2023-02-03T15:55:35;2.50;;;2.30;;
11839;SDS011;5979;50.800;4.904;2023-02-03T15:58:26;2.72;;;2.45;;
11839;SDS011;5979;50.800;4.904;2023-02-03T16:01:04;3.05;;;2.20;;
11839;SDS011;5979;50.800;4.904;2023-02-03T16:03:38;2.22;;;2.10;;
11839;SDS011;5979;50.800;4.904;2023-02-03T16:06:16;3.03;;;2.83;;
11839;SDS011;5979;50.800;4.904;2023-02-03T16:08:47;2.88;;;2.40;;
11839;SDS011;5979;50.800;4.904;2023-02-03T16:13:53;4.13;;;2.97;;
11839;SDS011;5979;50.800;4.904;2023-02-03T16:16:24;3.20;;;2.55;;
11839;SDS011;5979;50.800;4.904;2023-02-03T16:18:56;2.40;;;2.30;;
11839;SDS011;5979;50.800;4.904;2023-02-03T16:24:03;2.35;;;2.17;;
11839;SDS011;5979;50.800;4.904;2023-02-03T16:26:30;2.95;;;2.40;;
11839;SDS011;5979;50.800;4.904;2023-02-03T16:31:47;4.47;;;2.63;;
11839;SDS011;5979;50.800;4.904;2023-02-03T16:34:32;5.05;;;2.55;;
11839;SDS011;5979;50.800;4.904;2023-02-03T16:40:10;3.22;;;2.38;;
11839;SDS011;5979;50.800;4.904;2023-02-03T16:42:56;4.38;;;2.53;;
11839;SDS011;5979;50.800;4.904;2023-02-03T16:45:40;2.60;;;2.40;;
11839;SDS011;5979;50.800;4.904;2023-02-03T16:48:24;4.05;;;2.58;;
11839;SDS011;5979;50.800;4.904;2023-02-03T16:51:12;3.70;;;2.50;;
11839;SDS011;5979;50.800;4.904;2023-02-03T16:53:40;4.80;;;2.70;;
11839;SDS011;5979;50.800;4.904;2023-02-03T16:56:10;3.80;;;2.50;;
11839;SDS011;5979;50.800;4.904;2023-02-03T16:58:36;4.40;;;2.70;;
11839;SDS011;5979;50.800;4.904;2023-02-03T17:01:02;5.82;;;3.03;;
11839;SDS011;5979;50.800;4.904;2023-02-03T17:03:30;2.40;;;2.30;;
11839;SDS011;5979;50.800;4.904;2023-02-03T17:06:01;3.13;;;2.92;;
11839;SDS011;5979;50.800;4.904;2023-02-03T17:08:28;6.68;;;3.00;;
11839;SDS011;5979;50.800;4.904;2023-02-03T17:10:54;3.13;;;2.67;;
11839;SDS011;5979;50.800;4.904;2023-02-03T17:13:20;3.53;;;2.90;;
11839;SDS011;5979;50.800;4.904;2023-02-03T17:15:49;4.75;;;2.75;;
11839;SDS011;5979;50.800;4.904;2023-02-03T17:18:18;3.00;;;2.80;;
11839;SDS011;5979;50.800;4.904;2023-02-03T17:20:44;6.35;;;3.22;;
11839;SDS011;5979;50.800;4.904;2023-02-03T17:23:11;3.63;;;3.10;;
11839;SDS011;5979;50.800;4.904;2023-02-03T17:25:37;3.38;;;3.17;;
11839;SDS011;5979;50.800;4.904;2023-02-03T17:28:07;4.22;;;3.35;;
11839;SDS011;5979;50.800;4.904;2023-02-03T17:30:34;4.63;;;3.45;;
11839;SDS011;5979;50.800;4.904;2023-02-03T17:33:00;5.15;;;3.13;;
11839;SDS011;5979;50.800;4.904;2023-02-03T17:35:27;3.60;;;3.35;;
11839;SDS011;5979;50.800;4.904;2023-02-03T17:37:53;3.70;;;3.45;;
11839;SDS011;5979;50.800;4.904;2023-02-03T17:40:19;3.63;;;3.33;;
11839;SDS011;5979;50.800;4.904;2023-02-03T17:42:45;4.20;;;3.88;;
11839;SDS011;5979;50.800;4.904;2023-02-03T17:45:11;3.90;;;3.60;;
11839;SDS011;5979;50.800;4.904;2023-02-03T17:47:37;3.55;;;3.33;;
11839;SDS011;5979;50.800;4.904;2023-02-03T17:50:03;6.40;;;3.70;;
11839;SDS011;5979;50.800;4.904;2023-02-03T17:52:28;4.32;;;3.90;;
11839;SDS011;5979;50.800;4.904;2023-02-03T17:54:54;6.25;;;3.67;;
11839;SDS011;5979;50.800;4.904;2023-02-03T17:57:20;4.10;;;3.75;;
11839;SDS011;5979;50.800;4.904;2023-02-03T17:59:45;4.18;;;3.78;;
11839;SDS011;5979;50.800;4.904;2023-02-03T18:02:11;6.18;;;3.67;;
11839;SDS011;5979;50.800;4.904;2023-02-03T18:04:37;4.30;;;3.13;;
11839;SDS011;5979;50.800;4.904;2023-02-03T18:07:02;5.03;;;3.55;;
11839;SDS011;5979;50.800;4.904;2023-02-03T18:09:28;5.03;;;3.95;;
11839;SDS011;5979;50.800;4.904;2023-02-03T18:11:54;4.00;;;3.70;;
11839;SDS011;5979;50.800;4.904;2023-02-03T18:14:19;4.53;;;3.50;;
11839;SDS011;5979;50.800;4.904;2023-02-03T18:16:45;4.43;;;3.25;;